sensor_id;sensor_type;location;lat;lon;timestamp;temperature;humidity
70986;DHT22;58645;43.068;25.610;2022-10-24T00:01:47;10.00;99.90
70986;DHT22;58645;43.068;25.610;2022-10-24T00:04:12;10.00;99.90
70986;DHT22;58645;43.068;25.610;2022-10-24T00:06:39;10.00;99.90
70986;DHT22;58645;43.068;25.610;2022-10-24T00:09:06;10.00;99.90
70986;DHT22;58645;43.068;25.610;2022-10-24T00:11:32;10.00;99.90
70986;DHT22;58645;43.068;25.610;2022-10-24T00:13:58;10.00;99.90
70986;DHT22;58645;43.068;25.610;2022-10-24T00:16:25;9.90;99.90
70986;DHT22;58645;43.068;25.610;2022-10-24T00:18:51;9.80;99.90
70986;DHT22;58645;43.068;25.610;2022-10-24T00:21:16;9.80;99.90
70986;DHT22;58645;43.068;25.610;2022-10-24T00:23:42;9.80;99.90
70986;DHT22;58645;43.068;25.610;2022-10-24T00:26:09;9.70;99.90
70986;DHT22;58645;43.068;25.610;2022-10-24T00:28:36;9.70;99.90
70986;DHT22;58645;43.068;25.610;2022-10-24T00:31:02;9.70;99.90
70986;DHT22;58645;43.068;25.610;2022-10-24T00:33:28;9.70;99.90
70986;DHT22;58645;43.068;25.610;2022-10-24T00:35:54;9.70;99.90
70986;DHT22;58645;43.068;25.610;2022-10-24T00:38:20;9.70;99.90
70986;DHT22;58645;43.068;25.610;2022-10-24T00:40:46;9.70;99.90
70986;DHT22;58645;43.068;25.610;2022-10-24T00:43:14;9.70;99.90
70986;DHT22;58645;43.068;25.610;2022-10-24T00:48:24;9.60;99.90
70986;DHT22;58645;43.068;25.610;2022-10-24T00:50:58;9.60;99.90
70986;DHT22;58645;43.068;25.610;2022-10-24T00:53:26;9.50;99.90
70986;DHT22;58645;43.068;25.610;2022-10-24T00:55:56;9.50;99.90
70986;DHT22;58645;43.068;25.610;2022-10-24T00:58:25;9.40;99.90
70986;DHT22;58645;43.068;25.610;2022-10-24T01:00:52;9.40;99.90
70986;DHT22;58645;43.068;25.610;2022-10-24T01:03:18;9.40;99.90
70986;DHT22;58645;43.068;25.610;2022-10-24T01:14:07;9.30;99.90
70986;DHT22;58645;43.068;25.610;2022-10-24T01:16:48;9.30;99.90
70986;DHT22;58645;43.068;25.610;2022-10-24T01:22:41;9.00;99.90
70986;DHT22;58645;43.068;25.610;2022-10-24T01:28:23;8.90;99.90
70986;DHT22;58645;43.068;25.610;2022-10-24T01:30:52;8.80;99.90
70986;DHT22;58645;43.068;25.610;2022-10-24T01:33:34;8.80;99.90
70986;DHT22;58645;43.068;25.610;2022-10-24T01:36:07;8.70;99.90
70986;DHT22;58645;43.068;25.610;2022-10-24T01:38:40;8.70;99.90
70986;DHT22;58645;43.068;25.610;2022-10-24T01:41:10;8.70;99.90
70986;DHT22;58645;43.068;25.610;2022-10-24T01:43:43;8.70;99.90
70986;DHT22;58645;43.068;25.610;2022-10-24T01:46:16;8.60;99.90
70986;DHT22;58645;43.068;25.610;2022-10-24T01:48:53;8.70;99.90
70986;DHT22;58645;43.068;25.610;2022-10-24T01:51:23;8.70;99.90
70986;DHT22;58645;43.068;25.610;2022-10-24T01:53:50;8.70;99.90
70986;DHT22;58645;43.068;25.610;2022-10-24T01:56:16;8.70;99.90
70986;DHT22;58645;43.068;25.610;2022-10-24T01:58:42;8.70;99.90
70986;DHT22;58645;43.068;25.610;2022-10-24T02:01:11;8.70;99.90
70986;DHT22;58645;43.068;25.610;2022-10-24T02:03:49;8.80;99.90
70986;DHT22;58645;43.068;25.610;2022-10-24T02:06:38;8.60;99.90
70986;DHT22;58645;43.068;25.610;2022-10-24T02:09:08;8.50;99.90
70986;DHT22;58645;43.068;25.610;2022-10-24T02:11:36;8.50;99.90
70986;DHT22;58645;43.068;25.610;2022-10-24T02:16:35;8.40;99.90
70986;DHT22;58645;43.068;25.610;2022-10-24T02:19:01;8.40;99.90
70986;DHT22;58645;43.068;25.610;2022-10-24T02:24:24;8.30;99.90
70986;DHT22;58645;43.068;25.610;2022-10-24T02:27:05;8.30;99.90
70986;DHT22;58645;43.068;25.610;2022-10-24T02:29:34;8.40;99.90
70986;DHT22;58645;43.068;25.610;2022-10-24T02:32:09;8.40;99.90
70986;DHT22;58645;43.068;25.610;2022-10-24T02:34:37;8.40;99.90
70986;DHT22;58645;43.068;25.610;2022-10-24T02:37:05;8.50;99.90
70986;DHT22;58645;43.068;25.610;2022-10-24T02:39:33;8.50;99.90
70986;DHT22;58645;43.068;25.610;2022-10-24T02:42:00;8.50;99.90
70986;DHT22;58645;43.068;25.610;2022-10-24T02:44:27;8.50;99.90
70986;DHT22;58645;43.068;25.610;2022-10-24T02:46:54;8.50;99.90
70986;DHT22;58645;43.068;25.610;2022-10-24T02:49:21;8.60;99.90
70986;DHT22;58645;43.068;25.610;2022-10-24T02:51:48;8.60;99.90
70986;DHT22;58645;43.068;25.610;2022-10-24T02:54:15;8.50;99.90
70986;DHT22;58645;43.068;25.610;2022-10-24T02:56:44;8.40;99.90
70986;DHT22;58645;43.068;25.610;2022-10-24T02:59:10;8.40;99.90
70986;DHT22;58645;43.068;25.610;2022-10-24T03:01:36;8.40;99.90
70986;DHT22;58645;43.068;25.610;2022-10-24T03:04:02;8.40;99.90
70986;DHT22;58645;43.068;25.610;2022-10-24T03:06:28;8.40;99.90
70986;DHT22;58645;43.068;25.610;2022-10-24T03:08:53;8.40;99.90
70986;DHT22;58645;43.068;25.610;2022-10-24T03:11:19;8.30;99.90
70986;DHT22;58645;43.068;25.610;2022-10-24T03:13:45;8.30;99.90
70986;DHT22;58645;43.068;25.610;2022-10-24T03:16:11;8.30;99.90
70986;DHT22;58645;43.068;25.610;2022-10-24T03:18:36;8.30;99.90
70986;DHT22;58645;43.068;25.610;2022-10-24T03:21:02;8.20;99.90
70986;DHT22;58645;43.068;25.610;2022-10-24T03:23:28;8.20;99.90
70986;DHT22;58645;43.068;25.610;2022-10-24T03:25:58;8.20;99.90
70986;DHT22;58645;43.068;25.610;2022-10-24T03:28:24;8.20;99.90
70986;DHT22;58645;43.068;25.610;2022-10-24T03:30:49;8.10;99.90
70986;DHT22;58645;43.068;25.610;2022-10-24T03:33:17;8.10;99.90
70986;DHT22;58645;43.068;25.610;2022-10-24T03:35:43;8.10;99.90
70986;DHT22;58645;43.068;25.610;2022-10-24T03:38:09;8.00;99.90
70986;DHT22;58645;43.068;25.610;2022-10-24T03:40:35;8.00;99.90
70986;DHT22;58645;43.068;25.610;2022-10-24T03:43:01;8.00;99.90
70986;DHT22;58645;43.068;25.610;2022-10-24T03:45:27;7.90;99.90
70986;DHT22;58645;43.068;25.610;2022-10-24T03:47:52;7.90;99.90
70986;DHT22;58645;43.068;25.610;2022-10-24T03:50:18;7.80;99.90
70986;DHT22;58645;43.068;25.610;2022-10-24T03:52:45;7.80;99.90
70986;DHT22;58645;43.068;25.610;2022-10-24T03:55:11;7.80;99.90
70986;DHT22;58645;43.068;25.610;2022-10-24T03:57:37;7.70;99.90
70986;DHT22;58645;43.068;25.610;2022-10-24T04:00:04;7.70;99.90
70986;DHT22;58645;43.068;25.610;2022-10-24T04:02:30;7.70;99.90
70986;DHT22;58645;43.068;25.610;2022-10-24T04:04:56;7.70;99.90
70986;DHT22;58645;43.068;25.610;2022-10-24T04:07:22;7.70;99.90
70986;DHT22;58645;43.068;25.610;2022-10-24T04:09:48;7.70;99.90
70986;DHT22;58645;43.068;25.610;2022-10-24T04:12:14;7.60;99.90
70986;DHT22;58645;43.068;25.610;2022-10-24T04:14:40;7.60;99.90
70986;DHT22;58645;43.068;25.610;2022-10-24T04:17:05;7.60;99.90
70986;DHT22;58645;43.068;25.610;2022-10-24T04:19:31;7.60;99.90
70986;DHT22;58645;43.068;25.610;2022-10-24T04:21:57;7.60;99.90
70986;DHT22;58645;43.068;25.610;2022-10-24T04:24:23;7.60;99.90
70986;DHT22;58645;43.068;25.610;2022-10-24T04:26:49;7.70;99.90
70986;DHT22;58645;43.068;25.610;2022-10-24T04:29:15;7.70;99.90
70986;DHT22;58645;43.068;25.610;2022-10-24T04:31:41;7.70;99.90
70986;DHT22;58645;43.068;25.610;2022-10-24T04:34:14;7.80;99.90
70986;DHT22;58645;43.068;25.610;2022-10-24T04:36:40;7.80;99.90
70986;DHT22;58645;43.068;25.610;2022-10-24T04:39:06;7.80;99.90
70986;DHT22;58645;43.068;25.610;2022-10-24T04:41:33;7.80;99.90
70986;DHT22;58645;43.068;25.610;2022-10-24T04:43:59;7.90;99.90
70986;DHT22;58645;43.068;25.610;2022-10-24T04:46:27;8.20;99.90
70986;DHT22;58645;43.068;25.610;2022-10-24T04:55:20;7.90;99.90
70986;DHT22;58645;43.068;25.610;2022-10-24T04:57:49;7.90;99.90
70986;DHT22;58645;43.068;25.610;2022-10-24T05:00:45;7.90;99.90
70986;DHT22;58645;43.068;25.610;2022-10-24T05:03:54;7.90;99.90
70986;DHT22;58645;43.068;25.610;2022-10-24T05:06:23;7.90;99.90
70986;DHT22;58645;43.068;25.610;2022-10-24T05:08:58;8.00;99.90
70986;DHT22;58645;43.068;25.610;2022-10-24T05:11:38;8.00;99.90
70986;DHT22;58645;43.068;25.610;2022-10-24T05:14:04;8.10;99.90
70986;DHT22;58645;43.068;25.610;2022-10-24T05:16:33;8.20;99.90
70986;DHT22;58645;43.068;25.610;2022-10-24T05:19:08;8.20;99.90
70986;DHT22;58645;43.068;25.610;2022-10-24T05:21:37;8.30;99.90
70986;DHT22;58645;43.068;25.610;2022-10-24T05:24:03;8.40;99.90
70986;DHT22;58645;43.068;25.610;2022-10-24T05:26:32;8.40;99.90
70986;DHT22;58645;43.068;25.610;2022-10-24T05:29:05;8.50;99.90
70986;DHT22;58645;43.068;25.610;2022-10-24T05:31:31;8.70;99.90
70986;DHT22;58645;43.068;25.610;2022-10-24T05:33:58;9.10;99.90
70986;DHT22;58645;43.068;25.610;2022-10-24T05:36:24;10.00;99.90
70986;DHT22;58645;43.068;25.610;2022-10-24T05:38:50;11.40;99.90
70986;DHT22;58645;43.068;25.610;2022-10-24T05:45:09;13.00;97.70
70986;DHT22;58645;43.068;25.610;2022-10-24T05:47:41;14.60;87.00
70986;DHT22;58645;43.068;25.610;2022-10-24T05:50:07;15.80;80.00
70986;DHT22;58645;43.068;25.610;2022-10-24T05:52:33;16.60;75.30
70986;DHT22;58645;43.068;25.610;2022-10-24T05:55:07;17.40;70.80
70986;DHT22;58645;43.068;25.610;2022-10-24T05:57:34;18.10;67.50
70986;DHT22;58645;43.068;25.610;2022-10-24T06:00:13;18.70;64.60
70986;DHT22;58645;43.068;25.610;2022-10-24T06:02:39;19.50;61.30
70986;DHT22;58645;43.068;25.610;2022-10-24T06:05:14;19.70;59.50
70986;DHT22;58645;43.068;25.610;2022-10-24T06:07:40;19.90;57.70
70986;DHT22;58645;43.068;25.610;2022-10-24T06:10:10;20.10;56.70
70986;DHT22;58645;43.068;25.610;2022-10-24T06:12:39;20.70;55.50
70986;DHT22;58645;43.068;25.610;2022-10-24T06:15:06;21.10;53.80
70986;DHT22;58645;43.068;25.610;2022-10-24T06:17:32;20.80;53.10
70986;DHT22;58645;43.068;25.610;2022-10-24T06:20:04;21.30;53.20
70986;DHT22;58645;43.068;25.610;2022-10-24T06:22:30;22.20;50.80
70986;DHT22;58645;43.068;25.610;2022-10-24T06:25:02;22.60;49.80
70986;DHT22;58645;43.068;25.610;2022-10-24T06:27:41;22.90;48.70
70986;DHT22;58645;43.068;25.610;2022-10-24T06:30:10;23.40;47.70
70986;DHT22;58645;43.068;25.610;2022-10-24T06:32:46;23.40;47.10
70986;DHT22;58645;43.068;25.610;2022-10-24T06:35:15;23.60;46.60
70986;DHT22;58645;43.068;25.610;2022-10-24T06:37:43;24.10;45.40
70986;DHT22;58645;43.068;25.610;2022-10-24T06:40:09;24.40;44.60
70986;DHT22;58645;43.068;25.610;2022-10-24T06:42:36;24.50;44.30
70986;DHT22;58645;43.068;25.610;2022-10-24T06:45:02;24.90;43.70
70986;DHT22;58645;43.068;25.610;2022-10-24T06:47:47;24.90;43.10
70986;DHT22;58645;43.068;25.610;2022-10-24T06:50:13;25.10;42.60
70986;DHT22;58645;43.068;25.610;2022-10-24T06:56:00;25.90;40.40
70986;DHT22;58645;43.068;25.610;2022-10-24T06:59:08;26.00;40.40
70986;DHT22;58645;43.068;25.610;2022-10-24T07:01:33;26.40;39.30
70986;DHT22;58645;43.068;25.610;2022-10-24T07:04:00;26.40;38.90
70986;DHT22;58645;43.068;25.610;2022-10-24T07:06:28;25.70;40.20
70986;DHT22;58645;43.068;25.610;2022-10-24T07:08:56;25.00;42.10
70986;DHT22;58645;43.068;25.610;2022-10-24T07:11:23;23.90;44.40
70986;DHT22;58645;43.068;25.610;2022-10-24T07:13:49;23.10;46.40
70986;DHT22;58645;43.068;25.610;2022-10-24T07:16:15;23.40;46.50
70986;DHT22;58645;43.068;25.610;2022-10-24T07:18:41;23.10;46.40
70986;DHT22;58645;43.068;25.610;2022-10-24T07:21:11;22.80;47.40
70986;DHT22;58645;43.068;25.610;2022-10-24T07:23:38;23.20;47.10
70986;DHT22;58645;43.068;25.610;2022-10-24T07:26:12;23.80;44.80
70986;DHT22;58645;43.068;25.610;2022-10-24T07:28:40;23.40;46.50
70986;DHT22;58645;43.068;25.610;2022-10-24T07:31:07;24.50;43.60
70986;DHT22;58645;43.068;25.610;2022-10-24T07:33:35;25.10;43.10
70986;DHT22;58645;43.068;25.610;2022-10-24T07:36:09;25.90;40.80
70986;DHT22;58645;43.068;25.610;2022-10-24T07:38:58;26.10;40.30
70986;DHT22;58645;43.068;25.610;2022-10-24T07:41:35;27.00;38.90
70986;DHT22;58645;43.068;25.610;2022-10-24T07:44:02;26.70;38.20
70986;DHT22;58645;43.068;25.610;2022-10-24T07:46:28;26.30;39.20
70986;DHT22;58645;43.068;25.610;2022-10-24T07:48:54;25.80;40.80
70986;DHT22;58645;43.068;25.610;2022-10-24T07:51:24;25.70;41.00
70986;DHT22;58645;43.068;25.610;2022-10-24T07:54:18;25.50;40.70
70986;DHT22;58645;43.068;25.610;2022-10-24T07:56:48;25.40;40.80
70986;DHT22;58645;43.068;25.610;2022-10-24T07:59:13;25.80;39.90
70986;DHT22;58645;43.068;25.610;2022-10-24T08:01:39;25.80;40.10
70986;DHT22;58645;43.068;25.610;2022-10-24T08:04:05;26.30;39.30
70986;DHT22;58645;43.068;25.610;2022-10-24T08:06:31;26.90;38.60
70986;DHT22;58645;43.068;25.610;2022-10-24T08:08:57;27.70;37.70
70986;DHT22;58645;43.068;25.610;2022-10-24T08:11:25;27.90;37.00
70986;DHT22;58645;43.068;25.610;2022-10-24T08:13:54;28.40;36.20
70986;DHT22;58645;43.068;25.610;2022-10-24T08:16:22;29.00;35.80
70986;DHT22;58645;43.068;25.610;2022-10-24T08:18:50;28.40;34.40
70986;DHT22;58645;43.068;25.610;2022-10-24T08:21:18;29.90;33.90
70986;DHT22;58645;43.068;25.610;2022-10-24T08:24:06;30.20;33.10
70986;DHT22;58645;43.068;25.610;2022-10-24T08:26:32;30.70;32.40
70986;DHT22;58645;43.068;25.610;2022-10-24T08:29:00;30.90;31.20
70986;DHT22;58645;43.068;25.610;2022-10-24T08:31:26;31.30;31.80
70986;DHT22;58645;43.068;25.610;2022-10-24T08:33:53;31.20;31.30
70986;DHT22;58645;43.068;25.610;2022-10-24T08:36:25;30.80;31.70
70986;DHT22;58645;43.068;25.610;2022-10-24T08:38:51;30.20;32.70
70986;DHT22;58645;43.068;25.610;2022-10-24T08:41:34;29.70;32.90
70986;DHT22;58645;43.068;25.610;2022-10-24T08:44:03;29.20;34.20
70986;DHT22;58645;43.068;25.610;2022-10-24T08:49:22;28.40;36.20
70986;DHT22;58645;43.068;25.610;2022-10-24T08:51:56;28.50;35.50
70986;DHT22;58645;43.068;25.610;2022-10-24T08:54:29;28.60;35.50
70986;DHT22;58645;43.068;25.610;2022-10-24T08:59:41;28.60;34.70
70986;DHT22;58645;43.068;25.610;2022-10-24T09:02:21;28.40;35.50
70986;DHT22;58645;43.068;25.610;2022-10-24T09:04:53;28.60;35.00
70986;DHT22;58645;43.068;25.610;2022-10-24T09:07:31;28.80;33.20
70986;DHT22;58645;43.068;25.610;2022-10-24T09:10:15;29.50;33.20
70986;DHT22;58645;43.068;25.610;2022-10-24T09:12:45;29.90;32.90
70986;DHT22;58645;43.068;25.610;2022-10-24T09:15:19;30.50;30.30
70986;DHT22;58645;43.068;25.610;2022-10-24T09:17:47;31.00;30.10
70986;DHT22;58645;43.068;25.610;2022-10-24T09:20:23;31.30;29.60
70986;DHT22;58645;43.068;25.610;2022-10-24T09:22:52;31.80;29.50
70986;DHT22;58645;43.068;25.610;2022-10-24T09:25:23;32.10;29.20
70986;DHT22;58645;43.068;25.610;2022-10-24T09:27:50;32.30;28.80
70986;DHT22;58645;43.068;25.610;2022-10-24T09:30:22;32.40;28.40
70986;DHT22;58645;43.068;25.610;2022-10-24T09:32:50;32.80;27.30
70986;DHT22;58645;43.068;25.610;2022-10-24T09:35:25;33.20;27.00
70986;DHT22;58645;43.068;25.610;2022-10-24T09:37:56;33.40;26.70
70986;DHT22;58645;43.068;25.610;2022-10-24T09:42:59;33.40;26.30
70986;DHT22;58645;43.068;25.610;2022-10-24T09:47:59;34.10;25.00
70986;DHT22;58645;43.068;25.610;2022-10-24T09:50:26;34.30;25.00
70986;DHT22;58645;43.068;25.610;2022-10-24T09:52:55;34.00;24.40
70986;DHT22;58645;43.068;25.610;2022-10-24T09:55:25;33.10;25.10
70986;DHT22;58645;43.068;25.610;2022-10-24T09:57:54;33.40;25.30
70986;DHT22;58645;43.068;25.610;2022-10-24T10:00:31;33.80;24.70
70986;DHT22;58645;43.068;25.610;2022-10-24T10:03:19;34.50;23.70
70986;DHT22;58645;43.068;25.610;2022-10-24T10:05:53;34.80;22.70
70986;DHT22;58645;43.068;25.610;2022-10-24T10:08:34;34.80;22.40
70986;DHT22;58645;43.068;25.610;2022-10-24T10:11:03;34.80;22.70
70986;DHT22;58645;43.068;25.610;2022-10-24T10:13:32;35.10;23.40
70986;DHT22;58645;43.068;25.610;2022-10-24T10:16:03;35.40;22.70
70986;DHT22;58645;43.068;25.610;2022-10-24T10:18:41;35.50;22.80
70986;DHT22;58645;43.068;25.610;2022-10-24T10:21:14;35.70;22.10
70986;DHT22;58645;43.068;25.610;2022-10-24T10:23:48;35.60;22.10
70986;DHT22;58645;43.068;25.610;2022-10-24T10:26:19;35.50;22.20
70986;DHT22;58645;43.068;25.610;2022-10-24T10:29:20;35.60;22.00
70986;DHT22;58645;43.068;25.610;2022-10-24T10:32:16;35.90;22.20
70986;DHT22;58645;43.068;25.610;2022-10-24T10:34:58;35.90;22.10
70986;DHT22;58645;43.068;25.610;2022-10-24T10:37:34;35.80;22.10
70986;DHT22;58645;43.068;25.610;2022-10-24T10:50:53;36.30;22.40
70986;DHT22;58645;43.068;25.610;2022-10-24T10:53:34;36.40;22.00
70986;DHT22;58645;43.068;25.610;2022-10-24T10:59:03;36.30;21.30
70986;DHT22;58645;43.068;25.610;2022-10-24T11:10:11;36.20;20.70
70986;DHT22;58645;43.068;25.610;2022-10-24T11:12:42;36.00;20.90
70986;DHT22;58645;43.068;25.610;2022-10-24T11:18:08;34.90;21.30
70986;DHT22;58645;43.068;25.610;2022-10-24T11:20:42;34.80;23.00
70986;DHT22;58645;43.068;25.610;2022-10-24T11:25:42;35.00;22.80
70986;DHT22;58645;43.068;25.610;2022-10-24T11:33:24;35.60;21.80
70986;DHT22;58645;43.068;25.610;2022-10-24T11:38:41;35.60;21.20
70986;DHT22;58645;43.068;25.610;2022-10-24T11:41:32;36.00;21.00
70986;DHT22;58645;43.068;25.610;2022-10-24T11:44:05;35.30;21.30
70986;DHT22;58645;43.068;25.610;2022-10-24T11:46:40;34.90;21.60
70986;DHT22;58645;43.068;25.610;2022-10-24T11:49:36;34.50;22.50
70986;DHT22;58645;43.068;25.610;2022-10-24T11:52:13;34.10;23.20
70986;DHT22;58645;43.068;25.610;2022-10-24T11:54:54;33.30;24.40
70986;DHT22;58645;43.068;25.610;2022-10-24T11:57:28;32.50;25.70
70986;DHT22;58645;43.068;25.610;2022-10-24T11:59:55;31.90;26.00
70986;DHT22;58645;43.068;25.610;2022-10-24T12:10:37;30.10;30.70
70986;DHT22;58645;43.068;25.610;2022-10-24T12:19:02;29.10;32.00
70986;DHT22;58645;43.068;25.610;2022-10-24T12:21:37;28.90;32.40
70986;DHT22;58645;43.068;25.610;2022-10-24T12:24:04;28.50;33.00
70986;DHT22;58645;43.068;25.610;2022-10-24T12:26:33;28.20;34.40
70986;DHT22;58645;43.068;25.610;2022-10-24T12:29:06;27.90;34.40
70986;DHT22;58645;43.068;25.610;2022-10-24T12:31:44;27.60;35.10
70986;DHT22;58645;43.068;25.610;2022-10-24T12:37:11;27.30;36.20
70986;DHT22;58645;43.068;25.610;2022-10-24T12:39:38;27.10;36.70
70986;DHT22;58645;43.068;25.610;2022-10-24T12:42:16;27.00;37.50
70986;DHT22;58645;43.068;25.610;2022-10-24T12:47:43;26.90;36.90
70986;DHT22;58645;43.068;25.610;2022-10-24T13:01:40;26.50;38.40
70986;DHT22;58645;43.068;25.610;2022-10-24T13:09:39;26.20;39.10
70986;DHT22;58645;43.068;25.610;2022-10-24T13:17:47;26.10;38.90
70986;DHT22;58645;43.068;25.610;2022-10-24T13:20:24;26.00;39.50
70986;DHT22;58645;43.068;25.610;2022-10-24T13:22:59;26.00;38.90
70986;DHT22;58645;43.068;25.610;2022-10-24T13:25:37;25.90;38.50
70986;DHT22;58645;43.068;25.610;2022-10-24T13:30:48;25.60;39.00
70986;DHT22;58645;43.068;25.610;2022-10-24T13:38:37;25.30;39.80
70986;DHT22;58645;43.068;25.610;2022-10-24T13:41:07;25.30;40.20
70986;DHT22;58645;43.068;25.610;2022-10-24T13:43:37;25.20;40.20
70986;DHT22;58645;43.068;25.610;2022-10-24T13:46:09;25.20;40.50
70986;DHT22;58645;43.068;25.610;2022-10-24T13:48:39;25.10;40.80
70986;DHT22;58645;43.068;25.610;2022-10-24T13:51:23;25.10;40.80
70986;DHT22;58645;43.068;25.610;2022-10-24T13:54:17;25.10;40.70
70986;DHT22;58645;43.068;25.610;2022-10-24T13:56:45;25.10;41.30
70986;DHT22;58645;43.068;25.610;2022-10-24T13:59:34;25.10;41.00
70986;DHT22;58645;43.068;25.610;2022-10-24T14:02:12;25.00;41.40
70986;DHT22;58645;43.068;25.610;2022-10-24T14:04:45;25.00;41.60
70986;DHT22;58645;43.068;25.610;2022-10-24T14:07:20;24.90;42.40
70986;DHT22;58645;43.068;25.610;2022-10-24T14:09:59;24.80;43.00
70986;DHT22;58645;43.068;25.610;2022-10-24T14:12:27;24.70;43.90
70986;DHT22;58645;43.068;25.610;2022-10-24T14:14:54;24.50;44.10
70986;DHT22;58645;43.068;25.610;2022-10-24T14:17:27;24.50;44.20
70986;DHT22;58645;43.068;25.610;2022-10-24T14:22:40;24.50;44.30
70986;DHT22;58645;43.068;25.610;2022-10-24T14:27:47;24.40;44.40
70986;DHT22;58645;43.068;25.610;2022-10-24T14:30:17;24.30;44.50
70986;DHT22;58645;43.068;25.610;2022-10-24T14:32:43;24.20;44.80
70986;DHT22;58645;43.068;25.610;2022-10-24T14:35:12;24.20;45.30
70986;DHT22;58645;43.068;25.610;2022-10-24T14:37:39;24.10;45.20
70986;DHT22;58645;43.068;25.610;2022-10-24T14:40:14;24.00;45.20
70986;DHT22;58645;43.068;25.610;2022-10-24T14:42:40;24.00;45.20
70986;DHT22;58645;43.068;25.610;2022-10-24T14:45:21;23.90;45.70
70986;DHT22;58645;43.068;25.610;2022-10-24T14:47:52;23.80;46.00
70986;DHT22;58645;43.068;25.610;2022-10-24T14:50:37;23.80;45.80
70986;DHT22;58645;43.068;25.610;2022-10-24T14:53:04;23.70;46.00
70986;DHT22;58645;43.068;25.610;2022-10-24T14:55:29;23.60;46.20
70986;DHT22;58645;43.068;25.610;2022-10-24T14:57:55;23.40;46.50
70986;DHT22;58645;43.068;25.610;2022-10-24T15:00:24;23.30;46.60
70986;DHT22;58645;43.068;25.610;2022-10-24T15:02:51;23.10;47.20
70986;DHT22;58645;43.068;25.610;2022-10-24T15:07:54;22.90;47.90
70986;DHT22;58645;43.068;25.610;2022-10-24T15:10:24;22.70;48.50
70986;DHT22;58645;43.068;25.610;2022-10-24T15:17:45;22.20;49.00
70986;DHT22;58645;43.068;25.610;2022-10-24T15:20:16;22.10;49.20
70986;DHT22;58645;43.068;25.610;2022-10-24T15:22:52;22.00;49.70
70986;DHT22;58645;43.068;25.610;2022-10-24T15:25:35;21.80;51.20
70986;DHT22;58645;43.068;25.610;2022-10-24T15:28:03;21.70;50.80
70986;DHT22;58645;43.068;25.610;2022-10-24T15:30:32;21.50;51.40
70986;DHT22;58645;43.068;25.610;2022-10-24T15:33:00;21.40;52.60
70986;DHT22;58645;43.068;25.610;2022-10-24T15:35:27;21.30;52.60
70986;DHT22;58645;43.068;25.610;2022-10-24T15:38:11;21.20;52.20
70986;DHT22;58645;43.068;25.610;2022-10-24T15:40:41;21.20;52.10
70986;DHT22;58645;43.068;25.610;2022-10-24T15:43:13;21.20;52.60
70986;DHT22;58645;43.068;25.610;2022-10-24T15:45:39;21.10;52.70
70986;DHT22;58645;43.068;25.610;2022-10-24T15:48:05;21.10;52.80
70986;DHT22;58645;43.068;25.610;2022-10-24T15:50:31;21.00;52.50
70986;DHT22;58645;43.068;25.610;2022-10-24T15:53:00;20.90;52.90
70986;DHT22;58645;43.068;25.610;2022-10-24T15:55:28;20.90;53.20
70986;DHT22;58645;43.068;25.610;2022-10-24T15:57:55;20.80;53.50
70986;DHT22;58645;43.068;25.610;2022-10-24T16:00:27;20.70;53.30
70986;DHT22;58645;43.068;25.610;2022-10-24T16:02:56;20.70;53.70
70986;DHT22;58645;43.068;25.610;2022-10-24T16:05:30;20.50;54.10
70986;DHT22;58645;43.068;25.610;2022-10-24T16:07:59;20.40;54.30
70986;DHT22;58645;43.068;25.610;2022-10-24T16:10:24;20.30;54.70
70986;DHT22;58645;43.068;25.610;2022-10-24T16:12:50;20.20;56.00
70986;DHT22;58645;43.068;25.610;2022-10-24T16:15:24;20.10;56.80
70986;DHT22;58645;43.068;25.610;2022-10-24T16:17:51;20.00;56.70
70986;DHT22;58645;43.068;25.610;2022-10-24T16:20:17;19.80;57.10
70986;DHT22;58645;43.068;25.610;2022-10-24T16:22:43;19.70;56.60
70986;DHT22;58645;43.068;25.610;2022-10-24T16:25:15;19.60;57.90
70986;DHT22;58645;43.068;25.610;2022-10-24T16:27:41;19.50;58.30
70986;DHT22;58645;43.068;25.610;2022-10-24T16:30:08;19.30;58.90
70986;DHT22;58645;43.068;25.610;2022-10-24T16:32:34;19.30;58.60
70986;DHT22;58645;43.068;25.610;2022-10-24T16:35:02;19.20;59.30
70986;DHT22;58645;43.068;25.610;2022-10-24T16:37:27;19.10;60.10
70986;DHT22;58645;43.068;25.610;2022-10-24T16:39:53;19.00;59.60
70986;DHT22;58645;43.068;25.610;2022-10-24T16:42:19;18.90;60.40
70986;DHT22;58645;43.068;25.610;2022-10-24T16:44:47;18.80;60.30
70986;DHT22;58645;43.068;25.610;2022-10-24T16:47:12;18.70;60.60
70986;DHT22;58645;43.068;25.610;2022-10-24T16:49:38;18.70;60.50
70986;DHT22;58645;43.068;25.610;2022-10-24T16:52:04;18.60;61.30
70986;DHT22;58645;43.068;25.610;2022-10-24T16:54:30;18.60;61.60
70986;DHT22;58645;43.068;25.610;2022-10-24T16:56:56;18.50;62.60
70986;DHT22;58645;43.068;25.610;2022-10-24T16:59:22;18.40;62.50
70986;DHT22;58645;43.068;25.610;2022-10-24T17:01:48;18.30;62.10
70986;DHT22;58645;43.068;25.610;2022-10-24T17:04:14;18.20;63.30
70986;DHT22;58645;43.068;25.610;2022-10-24T17:06:40;18.10;62.60
70986;DHT22;58645;43.068;25.610;2022-10-24T17:09:06;18.10;63.80
70986;DHT22;58645;43.068;25.610;2022-10-24T17:11:31;18.00;63.20
70986;DHT22;58645;43.068;25.610;2022-10-24T17:13:57;18.00;63.10
70986;DHT22;58645;43.068;25.610;2022-10-24T17:16:23;18.00;63.70
70986;DHT22;58645;43.068;25.610;2022-10-24T17:18:49;17.90;64.90
70986;DHT22;58645;43.068;25.610;2022-10-24T17:21:15;17.80;66.10
70986;DHT22;58645;43.068;25.610;2022-10-24T17:23:41;17.70;66.20
70986;DHT22;58645;43.068;25.610;2022-10-24T17:26:14;17.60;65.80
70986;DHT22;58645;43.068;25.610;2022-10-24T17:28:40;17.50;65.70
70986;DHT22;58645;43.068;25.610;2022-10-24T17:31:06;17.50;66.20
70986;DHT22;58645;43.068;25.610;2022-10-24T17:33:32;17.50;66.70
70986;DHT22;58645;43.068;25.610;2022-10-24T17:35:58;17.40;66.30
70986;DHT22;58645;43.068;25.610;2022-10-24T17:39:24;17.30;66.50
70986;DHT22;58645;43.068;25.610;2022-10-24T17:41:33;17.30;67.00
70986;DHT22;58645;43.068;25.610;2022-10-24T17:44:02;17.20;67.10
70986;DHT22;58645;43.068;25.610;2022-10-24T17:46:28;17.20;67.20
70986;DHT22;58645;43.068;25.610;2022-10-24T17:48:53;17.10;67.90
70986;DHT22;58645;43.068;25.610;2022-10-24T17:51:22;17.10;68.40
70986;DHT22;58645;43.068;25.610;2022-10-24T17:53:48;17.00;68.40
70986;DHT22;58645;43.068;25.610;2022-10-24T17:56:14;17.00;68.40
70986;DHT22;58645;43.068;25.610;2022-10-24T17:58:40;16.90;68.30
70986;DHT22;58645;43.068;25.610;2022-10-24T18:01:05;16.90;69.50
70986;DHT22;58645;43.068;25.610;2022-10-24T18:03:31;16.90;68.80
70986;DHT22;58645;43.068;25.610;2022-10-24T18:05:58;16.90;68.90